Etusivu
METAR-TAF:

METAR-TAF

Lentoasemat :

Malé, Hulhule Island, Malediivit

Malén kansainvälinen lentoasema

Leveyspiiri: 04-12N, Pituuspiiri: 073-32E, korkeus merenpinnasta: 2 m

Tämänhetkinen sää

Tämä raportti tehtiin 49 minuuttia sitten, kello 21.00 UTC
Tuuli 4 kn etelästä
Lämpötila 28°C
Kosteus 74%
Ilmanpaine 1012 hPa
Näkyvyys 10 km tai enemmän
Muutamia pilviä 1800 ft:n korkeudessa

METAR: VRMM 122100Z 18004KT 9999 FEW018 28/23 Q1012 NOSIG

Aika: 02:49 (21:49 UTC)

Sääennuste

Tämä raportti tehtiin 4 tuntia ja 49 minuuttia sitten, kello 17.00 UTC
Ennuste voimassa 12. päivästä klo 18 UTC - 13. päivään klo 24 UTC
Tuuli 5 kn kaakosta
Näkyvyys 10 km tai enemmän
Muutamia pilviä 1900 ft:n korkeudessa

TAF: VRMM 121700Z 1218/1324 14005KT 9999 FEW019

Säähavainnot ja -ennusteet yli 4000 lentoasemalta (METAR- ja TAF-raportit).

Käytössä olevat sääasemat on merkitty karttaan keltaisilla ja punaisilla pisteillä.

Aseta hiiri pisteen päälle nähdäksesi sääaseman nimen.

Klikkaa sitten nähdäksesi säähavainnot ja -ennusteet.

Kartan vaihtaminen: klikkaa mustalla rastilla varustettuja vihreitä pisteitä, niin voit zoomata sisään; viivalla varustettua vihreää pistettä, niin voit zoomata ulos tai vihreitä nuolia, niin pääset viereisille kartoille.


METAR-TAF: